createdAt,value
2018-12-26T00:02:34.545Z,3.20
2018-12-26T00:05:23.911Z,3.20
2018-12-26T00:08:15.094Z,3.20
2018-12-26T00:11:23.422Z,3.10
2018-12-26T00:14:12.966Z,3.20
2018-12-26T00:17:02.209Z,3.20
2018-12-26T00:19:51.489Z,3.20
2018-12-26T00:22:42.416Z,3.30
2018-12-26T00:25:31.717Z,3.20
2018-12-26T00:28:40.076Z,3.10
2018-12-26T00:31:29.291Z,3.10
2018-12-26T00:34:18.604Z,3.00
2018-12-26T00:37:07.826Z,3.00
2018-12-26T00:40:16.241Z,3.00
2018-12-26T00:43:05.812Z,3.00
2018-12-26T00:45:55.110Z,3.00
2018-12-26T00:49:03.451Z,2.90
2018-12-26T00:51:52.747Z,2.90
2018-12-26T00:54:42.065Z,2.90
2018-12-26T00:57:31.390Z,2.90
2018-12-26T01:00:39.693Z,2.90
2018-12-26T01:03:29.363Z,2.90
2018-12-26T01:06:18.685Z,2.90
2018-12-26T01:09:27.645Z,2.90
2018-12-26T01:12:35.904Z,3.00
2018-12-26T01:15:44.144Z,2.90
2018-12-26T01:18:33.395Z,2.90
2018-12-26T01:21:15.807Z,2.90
2018-12-26T01:24:24.160Z,3.00
2018-12-26T01:27:13.458Z,2.90
2018-12-26T01:30:21.873Z,2.90
2018-12-26T01:33:11.185Z,2.90
2018-12-26T01:36:00.475Z,2.90
2018-12-26T01:41:45.135Z,2.90
2018-12-26T01:44:54.220Z,2.90
2018-12-26T01:47:44.433Z,2.80
2018-12-26T01:50:34.071Z,2.80
2018-12-26T01:53:23.380Z,2.80
2018-12-26T01:56:12.680Z,2.90
2018-12-26T02:01:56.521Z,2.80
2018-12-26T02:04:45.838Z,2.80
2018-12-26T02:07:35.058Z,2.70
2018-12-26T02:10:43.398Z,2.80
2018-12-26T02:13:32.703Z,2.70
2018-12-26T02:16:21.928Z,2.60
2018-12-26T02:19:11.532Z,2.70
2018-12-26T02:21:53.188Z,2.70
2018-12-26T02:25:01.493Z,2.70
2018-12-26T02:27:55.905Z,2.70
2018-12-26T02:31:04.489Z,2.70
2018-12-26T02:34:30.853Z,2.70
2018-12-26T02:37:40.602Z,2.70
2018-12-26T02:40:19.609Z,2.70
2018-12-26T02:43:09.122Z,2.70
2018-12-26T02:49:06.680Z,2.70
2018-12-26T02:51:56.041Z,2.70
2018-12-26T02:54:45.354Z,2.70
2018-12-26T02:57:34.719Z,2.60
2018-12-26T03:00:24.539Z,2.60
2018-12-26T03:03:13.761Z,2.60
2018-12-26T03:06:04.864Z,2.60
2018-12-26T03:08:54.181Z,2.60
2018-12-26T03:11:43.402Z,2.60
2018-12-26T03:14:51.743Z,2.60
2018-12-26T03:17:41.044Z,2.60
2018-12-26T03:20:22.961Z,2.50
2018-12-26T03:23:12.181Z,2.50
2018-12-26T03:26:01.630Z,2.60
2018-12-26T03:28:50.941Z,2.50
2018-12-26T03:31:59.190Z,2.50
2018-12-26T03:34:48.504Z,2.50
2018-12-26T03:37:37.998Z,2.50
2018-12-26T03:40:27.601Z,2.50
2018-12-26T03:43:16.966Z,2.50
2018-12-26T03:49:21.937Z,2.50
2018-12-26T03:52:30.253Z,2.50
2018-12-26T03:55:19.645Z,2.50
2018-12-26T03:58:09.372Z,2.50
2018-12-26T04:00:58.816Z,2.50
2018-12-26T04:03:48.227Z,2.40
2018-12-26T04:06:56.560Z,2.50
2018-12-26T04:09:45.974Z,2.50
2018-12-26T04:12:54.423Z,2.50
2018-12-26T04:15:43.905Z,2.50
2018-12-26T04:18:33.212Z,2.50
2018-12-26T04:21:15.638Z,2.50
2018-12-26T04:27:20.619Z,2.60
2018-12-26T04:30:10.514Z,2.60
2018-12-26T04:32:59.750Z,2.60
2018-12-26T04:36:08.122Z,2.50
2018-12-26T04:39:16.479Z,2.60
2018-12-26T04:42:24.816Z,2.50
2018-12-26T04:45:14.134Z,2.60
2018-12-26T04:48:03.444Z,2.60
2018-12-26T04:50:52.765Z,2.70
2018-12-26T04:53:42.413Z,2.70
2018-12-26T04:56:50.685Z,2.70
2018-12-26T04:59:58.964Z,2.70
2018-12-26T05:02:48.321Z,2.60
2018-12-26T05:05:37.583Z,2.70
2018-12-26T05:08:26.810Z,2.70
2018-12-26T05:14:10.894Z,2.70
2018-12-26T05:17:19.242Z,2.80
2018-12-26T05:20:01.311Z,2.80
2018-12-26T05:23:09.678Z,2.80
2018-12-26T05:25:59.341Z,2.80
2018-12-26T05:28:48.573Z,2.80
2018-12-26T05:31:56.845Z,2.80
2018-12-26T05:34:46.157Z,2.80
2018-12-26T05:37:54.476Z,2.80
2018-12-26T05:41:02.743Z,2.80
2018-12-26T05:43:52.396Z,2.80
2018-12-26T05:46:41.646Z,2.80
2018-12-26T05:49:30.936Z,2.90
2018-12-26T05:52:20.249Z,2.80
2018-12-26T05:55:09.870Z,2.80
2018-12-26T05:57:59.183Z,2.70
2018-12-26T06:01:07.457Z,2.70
2018-12-26T06:03:56.916Z,2.70
2018-12-26T06:06:46.158Z,2.80
2018-12-26T06:09:35.672Z,2.80
2018-12-26T06:12:24.997Z,2.80
2018-12-26T06:15:14.242Z,2.80
2018-12-26T06:18:03.498Z,2.80
2018-12-26T06:20:45.740Z,2.80
2018-12-26T06:23:53.981Z,2.90
2018-12-26T06:26:43.301Z,2.90
2018-12-26T06:29:32.520Z,3.00
2018-12-26T06:32:40.784Z,3.00
2018-12-26T06:35:30.716Z,3.00
2018-12-26T06:38:19.950Z,3.00
2018-12-26T06:41:09.277Z,3.00
2018-12-26T06:47:26.090Z,3.10
2018-12-26T06:50:15.418Z,3.10
2018-12-26T06:56:12.999Z,3.20
2018-12-26T06:59:02.226Z,3.10
2018-12-26T07:04:46.555Z,3.00
2018-12-26T07:07:35.890Z,2.90
2018-12-26T07:13:19.841Z,3.00
2018-12-26T07:16:28.179Z,3.00
2018-12-26T07:19:17.555Z,2.80
2018-12-26T07:22:00.154Z,2.80
2018-12-26T07:25:08.481Z,2.70
2018-12-26T07:27:57.718Z,2.60
2018-12-26T07:30:47.042Z,2.50
2018-12-26T07:33:36.267Z,2.50
2018-12-26T07:36:44.922Z,2.40
2018-12-26T07:39:34.524Z,2.40
2018-12-26T07:42:23.765Z,2.40
2018-12-26T07:45:32.023Z,2.40
2018-12-26T07:48:21.497Z,2.40
2018-12-26T07:51:29.836Z,2.50
2018-12-26T07:54:20.730Z,2.40
2018-12-26T07:57:10.362Z,2.50
2018-12-26T07:59:59.633Z,2.50
2018-12-26T08:02:48.888Z,2.50
2018-12-26T08:05:57.496Z,2.40
2018-12-26T08:09:05.815Z,2.50
2018-12-26T08:11:55.354Z,2.40
2018-12-26T08:15:10.551Z,2.50
2018-12-26T08:17:54.660Z,2.50
2018-12-26T08:20:36.304Z,2.60
2018-12-26T08:23:25.543Z,2.60
2018-12-26T08:26:14.870Z,2.70
2018-12-26T08:29:23.460Z,2.60
2018-12-26T08:32:12.953Z,2.60
2018-12-26T08:35:21.237Z,2.60
2018-12-26T08:38:10.541Z,2.60
2018-12-26T08:40:59.803Z,2.60
2018-12-26T08:43:49.032Z,2.60
2018-12-26T08:46:57.373Z,2.70
2018-12-26T08:49:47.026Z,2.60
2018-12-26T08:52:55.371Z,2.60
2018-12-26T08:56:03.909Z,2.60
2018-12-26T08:58:53.457Z,2.60
2018-12-26T09:01:44.160Z,2.60
2018-12-26T09:04:33.385Z,2.60
2018-12-26T09:07:22.912Z,2.60
2018-12-26T09:10:12.353Z,2.60
2018-12-26T09:13:01.651Z,2.60
2018-12-26T09:19:18.216Z,2.70
2018-12-26T09:21:59.766Z,2.80
2018-12-26T09:24:49.002Z,2.70
2018-12-26T09:27:39.203Z,2.80
2018-12-26T09:33:38.494Z,2.90
2018-12-26T09:36:47.118Z,2.80
2018-12-26T09:39:55.438Z,2.90
2018-12-26T09:42:44.747Z,2.90
2018-12-26T09:45:33.965Z,2.90
2018-12-26T09:48:26.045Z,2.90
2018-12-26T09:51:15.728Z,2.90
2018-12-26T09:54:24.379Z,2.90
2018-12-26T09:57:33.003Z,2.90
2018-12-26T10:00:41.275Z,2.90
2018-12-26T10:03:49.550Z,2.90
2018-12-26T10:06:57.956Z,2.90
2018-12-26T10:10:06.192Z,2.90
2018-12-26T10:12:55.428Z,3.00
2018-12-26T10:15:44.764Z,3.00
2018-12-26T10:18:34.182Z,3.00
2018-12-26T10:21:16.267Z,3.00
2018-12-26T10:27:11.212Z,3.10
2018-12-26T10:30:00.457Z,3.20
2018-12-26T10:33:08.779Z,3.20
2018-12-26T10:35:58.145Z,3.20
2018-12-26T10:38:47.389Z,3.30
2018-12-26T10:41:36.705Z,3.20
2018-12-26T10:44:45.324Z,3.30
2018-12-26T10:47:34.938Z,3.20
2018-12-26T10:50:43.264Z,3.20
2018-12-26T10:53:51.608Z,3.20
2018-12-26T10:56:40.831Z,3.10
2018-12-26T10:59:49.118Z,3.10
2018-12-26T11:02:57.459Z,3.10
2018-12-26T11:05:46.681Z,3.10
2018-12-26T11:08:36.004Z,3.10
2018-12-26T11:11:25.322Z,3.20
2018-12-26T11:14:14.689Z,3.20
2018-12-26T11:17:04.306Z,3.20
2018-12-26T11:20:12.847Z,3.20
2018-12-26T11:22:54.737Z,3.20
2018-12-26T11:26:02.970Z,3.20
2018-12-26T11:29:18.316Z,3.20
2018-12-26T11:32:02.181Z,3.20
2018-12-26T11:34:51.500Z,3.20
2018-12-26T11:37:40.946Z,3.10
2018-12-26T11:40:30.308Z,3.10
2018-12-26T11:43:19.701Z,3.20
2018-12-26T11:46:08.996Z,3.20
2018-12-26T11:49:17.609Z,3.20
2018-12-26T11:52:25.974Z,3.20
2018-12-26T11:55:34.390Z,3.20
2018-12-26T11:58:23.729Z,3.30
2018-12-26T12:01:13.603Z,3.30
2018-12-26T12:04:03.690Z,3.30
2018-12-26T12:06:52.932Z,3.40
2018-12-26T12:10:01.273Z,3.40
2018-12-26T12:13:09.547Z,3.30
2018-12-26T12:19:07.103Z,3.20
2018-12-26T12:21:48.924Z,3.20
2018-12-26T12:24:57.287Z,3.20
2018-12-26T12:27:46.539Z,3.20
2018-12-26T12:30:35.858Z,3.20
2018-12-26T12:33:25.260Z,3.10
2018-12-26T12:36:33.572Z,3.10
2018-12-26T12:39:23.063Z,3.00
2018-12-26T12:42:31.396Z,2.90
2018-12-26T12:45:39.735Z,2.90
2018-12-26T12:48:29.147Z,2.90
2018-12-26T12:51:18.523Z,2.90
2018-12-26T12:54:27.126Z,2.90
2018-12-26T12:57:35.491Z,2.90
2018-12-26T13:00:43.756Z,2.90
2018-12-26T13:03:33.067Z,2.90
2018-12-26T13:06:41.809Z,2.80
2018-12-26T13:09:50.153Z,2.80
2018-12-26T13:15:54.442Z,2.90
2018-12-26T13:18:45.402Z,2.90
2018-12-26T13:21:27.802Z,2.90
2018-12-26T13:24:17.050Z,2.90
2018-12-26T13:27:25.377Z,3.00
2018-12-26T13:30:14.759Z,3.00
2018-12-26T13:33:23.024Z,3.00
2018-12-26T13:36:14.258Z,3.00
2018-12-26T13:42:00.554Z,2.90
2018-12-26T13:44:50.989Z,3.00
2018-12-26T13:47:21.405Z,3.00
2018-12-26T13:50:29.926Z,2.90
2018-12-26T13:53:19.253Z,2.90
2018-12-26T13:56:08.936Z,2.90
2018-12-26T13:58:58.257Z,2.90
2018-12-26T14:02:06.500Z,2.90
2018-12-26T14:04:55.902Z,2.90
2018-12-26T14:08:04.218Z,2.90
2018-12-26T14:10:53.459Z,2.90
2018-12-26T14:13:42.787Z,2.90
2018-12-26T14:16:33.789Z,2.80
2018-12-26T14:19:23.114Z,2.80
2018-12-26T14:22:08.130Z,2.80
2018-12-26T14:24:57.450Z,2.90
2018-12-26T14:28:06.029Z,2.90
2018-12-26T14:30:55.641Z,2.90
2018-12-26T14:33:44.892Z,2.90
2018-12-26T14:36:34.263Z,2.90
2018-12-26T14:39:23.511Z,2.90
2018-12-26T14:42:12.781Z,2.90
2018-12-26T14:45:02.098Z,2.90
2018-12-26T14:47:54.263Z,2.90
2018-12-26T14:51:02.958Z,2.90
2018-12-26T14:53:52.356Z,2.90
2018-12-26T14:56:43.500Z,2.90
2018-12-26T14:59:54.339Z,2.90
2018-12-26T15:06:12.777Z,2.80
2018-12-26T15:09:21.115Z,2.80
2018-12-26T15:12:10.321Z,2.90
2018-12-26T15:14:59.695Z,2.90
2018-12-26T15:17:51.973Z,2.90
2018-12-26T15:20:34.265Z,2.80
2018-12-26T15:23:23.553Z,2.80
2018-12-26T15:26:44.386Z,2.80
2018-12-26T15:29:43.529Z,2.80
2018-12-26T15:32:32.835Z,2.80
2018-12-26T15:35:41.216Z,2.80
2018-12-26T15:38:32.593Z,2.80
2018-12-26T15:41:22.171Z,2.80
2018-12-26T15:44:30.342Z,2.80
2018-12-26T15:47:19.708Z,2.80
2018-12-26T15:50:28.167Z,2.80
2018-12-26T15:53:17.400Z,2.80
2018-12-26T15:56:25.734Z,2.80
2018-12-26T15:59:34.091Z,2.80
2018-12-26T16:02:23.396Z,2.80
2018-12-26T16:05:12.789Z,2.80
2018-12-26T16:08:02.075Z,2.80
2018-12-26T16:11:10.362Z,2.80
2018-12-26T16:14:18.608Z,2.80
2018-12-26T16:17:26.890Z,2.80
2018-12-26T16:20:16.632Z,2.80
2018-12-26T16:22:58.807Z,2.80
2018-12-26T16:26:07.151Z,2.80
2018-12-26T16:29:15.400Z,2.80
2018-12-26T16:32:23.761Z,2.80
2018-12-26T16:35:13.082Z,2.80
2018-12-26T16:38:02.760Z,2.80
2018-12-26T16:40:52.081Z,2.80
2018-12-26T16:44:00.364Z,2.80
2018-12-26T16:46:50.087Z,2.80
2018-12-26T16:49:58.433Z,2.80
2018-12-26T16:52:47.645Z,2.90
2018-12-26T16:55:36.980Z,2.90
2018-12-26T16:58:45.584Z,2.90
2018-12-26T17:01:34.903Z,2.80
2018-12-26T17:04:43.294Z,2.80
2018-12-26T17:07:32.795Z,2.90
2018-12-26T17:10:41.070Z,2.90
2018-12-26T17:13:30.601Z,2.90
2018-12-26T17:16:19.926Z,2.90
2018-12-26T17:19:09.529Z,2.90
2018-12-26T17:21:52.042Z,2.80
2018-12-26T17:25:00.325Z,2.80
2018-12-26T17:27:49.938Z,2.80
2018-12-26T17:31:04.043Z,2.80
2018-12-26T17:33:49.311Z,2.80
2018-12-26T17:36:57.957Z,2.80
2018-12-26T17:39:47.265Z,2.80
2018-12-26T17:42:36.582Z,2.80
2018-12-26T17:45:26.199Z,2.80
2018-12-26T17:48:15.496Z,2.80
2018-12-26T17:51:09.089Z,2.80
2018-12-26T17:54:36.664Z,2.70
2018-12-26T17:57:30.329Z,2.80
2018-12-26T18:00:42.367Z,2.80
2018-12-26T18:06:39.859Z,2.80
2018-12-26T18:09:48.092Z,2.80
2018-12-26T18:12:56.466Z,2.80
2018-12-26T18:16:04.717Z,2.90
2018-12-26T18:18:53.936Z,2.80
2018-12-26T18:21:37.087Z,2.80
2018-12-26T18:24:26.655Z,2.80
2018-12-26T18:30:11.743Z,2.80
2018-12-26T18:33:20.080Z,2.80
2018-12-26T18:36:09.744Z,2.80
2018-12-26T18:39:18.055Z,2.80
2018-12-26T18:42:26.315Z,2.80
2018-12-26T18:45:34.683Z,2.80
2018-12-26T18:48:24.262Z,2.80
2018-12-26T18:51:32.953Z,2.80
2018-12-26T18:54:22.325Z,2.80
2018-12-26T18:57:30.662Z,2.80
2018-12-26T19:00:20.032Z,2.80
2018-12-26T19:03:09.283Z,2.80
2018-12-26T19:06:17.757Z,2.70
2018-12-26T19:12:16.191Z,2.80
2018-12-26T19:18:14.433Z,2.80
2018-12-26T19:21:22.792Z,2.80
2018-12-26T19:24:31.115Z,2.80
2018-12-26T19:27:20.361Z,2.80
2018-12-26T19:30:12.038Z,2.80
2018-12-26T19:33:20.407Z,2.80
2018-12-26T19:36:09.657Z,2.80
2018-12-26T19:38:58.958Z,2.80
2018-12-26T19:41:48.563Z,2.80
2018-12-26T19:44:56.888Z,2.80
2018-12-26T19:47:46.562Z,2.80
2018-12-26T19:50:54.825Z,2.80
2018-12-26T19:53:44.074Z,2.90
2018-12-26T19:56:52.383Z,2.80
2018-12-26T20:00:00.626Z,2.80
2018-12-26T20:03:08.979Z,2.80
2018-12-26T20:05:58.555Z,2.80
2018-12-26T20:08:48.134Z,2.80
2018-12-26T20:11:38.533Z,2.80
2018-12-26T20:14:28.399Z,2.80
2018-12-26T20:17:17.637Z,2.80
2018-12-26T20:20:07.477Z,2.80
2018-12-26T20:22:49.811Z,2.80
2018-12-26T20:25:39.108Z,2.80
2018-12-26T20:28:47.487Z,2.80
2018-12-26T20:31:37.132Z,2.80
2018-12-26T20:34:45.395Z,2.80
2018-12-26T20:37:35.006Z,2.80
2018-12-26T20:40:24.236Z,2.70
2018-12-26T20:43:13.578Z,2.80
2018-12-26T20:46:21.822Z,2.80
2018-12-26T20:49:11.087Z,2.80
2018-12-26T20:52:00.354Z,2.70
2018-12-26T20:55:08.611Z,2.70
2018-12-26T20:57:57.840Z,2.70
2018-12-26T21:00:47.303Z,2.70
2018-12-26T21:03:36.545Z,2.70
2018-12-26T21:06:25.788Z,2.70
2018-12-26T21:09:15.458Z,2.70
2018-12-26T21:12:04.854Z,2.80
2018-12-26T21:14:54.078Z,2.80
2018-12-26T21:17:43.406Z,2.80
2018-12-26T21:23:33.903Z,2.80
2018-12-26T21:26:42.156Z,2.70
2018-12-26T21:29:31.404Z,2.70
2018-12-26T21:32:20.929Z,2.80
2018-12-26T21:35:29.266Z,2.80
2018-12-26T21:38:18.597Z,2.70
2018-12-26T21:41:07.905Z,2.80
2018-12-26T21:43:59.464Z,2.80
2018-12-26T21:46:49.082Z,2.80
2018-12-26T21:49:57.453Z,2.80
2018-12-26T21:52:50.101Z,2.80
2018-12-26T21:55:39.720Z,2.80
2018-12-26T21:58:49.716Z,2.80
2018-12-26T22:01:38.942Z,2.80
2018-12-26T22:04:47.285Z,2.80
2018-12-26T22:07:36.651Z,2.80
2018-12-26T22:10:27.018Z,2.80
2018-12-26T22:13:18.350Z,2.80
2018-12-26T22:16:26.573Z,2.80
2018-12-26T22:19:17.777Z,2.80
2018-12-26T22:22:01.813Z,2.80
2018-12-26T22:24:53.082Z,2.80
2018-12-26T22:30:38.990Z,2.80
2018-12-26T22:33:28.689Z,2.80
2018-12-26T22:36:18.282Z,2.80
2018-12-26T22:39:26.755Z,2.90
2018-12-26T22:42:15.971Z,2.80
2018-12-26T22:45:06.055Z,2.80
2018-12-26T22:48:14.852Z,2.90
2018-12-26T22:51:26.395Z,2.90
2018-12-26T22:54:16.213Z,2.90
2018-12-26T22:57:05.432Z,2.80
2018-12-26T23:00:13.735Z,2.80
2018-12-26T23:03:22.084Z,2.90
2018-12-26T23:05:52.437Z,2.90
2018-12-26T23:09:01.342Z,2.90
2018-12-26T23:11:50.692Z,2.90
2018-12-26T23:14:39.979Z,2.90
2018-12-26T23:18:01.803Z,2.90
2018-12-26T23:20:39.704Z,2.90
2018-12-26T23:23:21.879Z,3.00
2018-12-26T23:26:30.200Z,3.00
2018-12-26T23:29:19.462Z,3.00
2018-12-26T23:32:08.756Z,3.00
2018-12-26T23:34:58.007Z,3.00
2018-12-26T23:37:47.346Z,3.00
2018-12-26T23:40:36.615Z,3.00
2018-12-26T23:43:25.924Z,3.00
2018-12-26T23:46:15.242Z,3.00
2018-12-26T23:49:23.590Z,3.00
2018-12-26T23:52:12.812Z,3.00
2018-12-26T23:55:21.213Z,3.00
2018-12-26T23:58:43.851Z,3.00
